sensor_id;sensor_type;location;lat;lon;timestamp;temperature;humidity
262;DHT22;114;48.260;10.988;2023-04-20T00:01:46;4.20;99.90
262;DHT22;114;48.260;10.988;2023-04-20T00:04:14;4.20;99.90
262;DHT22;114;48.260;10.988;2023-04-20T00:06:40;4.20;99.90
262;DHT22;114;48.260;10.988;2023-04-20T00:09:09;4.20;99.90
262;DHT22;114;48.260;10.988;2023-04-20T00:11:35;4.20;99.90
262;DHT22;114;48.260;10.988;2023-04-20T00:14:01;4.20;99.90
262;DHT22;114;48.260;10.988;2023-04-20T00:16:27;4.20;99.90
262;DHT22;114;48.260;10.988;2023-04-20T00:18:53;4.10;99.90
262;DHT22;114;48.260;10.988;2023-04-20T00:21:19;4.10;99.90
262;DHT22;114;48.260;10.988;2023-04-20T00:23:49;4.20;99.90
262;DHT22;114;48.260;10.988;2023-04-20T00:26:16;4.20;99.90
262;DHT22;114;48.260;10.988;2023-04-20T00:28:42;4.20;99.90
262;DHT22;114;48.260;10.988;2023-04-20T00:31:08;4.20;99.90
262;DHT22;114;48.260;10.988;2023-04-20T00:33:34;4.20;99.90
262;DHT22;114;48.260;10.988;2023-04-20T00:36:00;4.20;99.90
262;DHT22;114;48.260;10.988;2023-04-20T00:38:26;4.10;99.90
262;DHT22;114;48.260;10.988;2023-04-20T00:40:53;4.10;99.90
262;DHT22;114;48.260;10.988;2023-04-20T00:43:20;4.10;99.90
262;DHT22;114;48.260;10.988;2023-04-20T00:45:46;4.10;99.90
262;DHT22;114;48.260;10.988;2023-04-20T00:48:12;4.10;99.90
262;DHT22;114;48.260;10.988;2023-04-20T00:50:39;4.10;99.90
262;DHT22;114;48.260;10.988;2023-04-20T00:53:06;4.10;99.90
262;DHT22;114;48.260;10.988;2023-04-20T00:55:32;4.10;99.90
262;DHT22;114;48.260;10.988;2023-04-20T00:58:00;4.10;99.90
262;DHT22;114;48.260;10.988;2023-04-20T01:00:26;4.10;99.90
262;DHT22;114;48.260;10.988;2023-04-20T01:02:52;4.10;99.90
262;DHT22;114;48.260;10.988;2023-04-20T01:05:17;4.10;99.90
262;DHT22;114;48.260;10.988;2023-04-20T01:07:43;4.10;99.90
262;DHT22;114;48.260;10.988;2023-04-20T01:10:09;4.10;99.90
262;DHT22;114;48.260;10.988;2023-04-20T01:12:35;4.10;99.90
262;DHT22;114;48.260;10.988;2023-04-20T01:15:04;4.00;99.90
262;DHT22;114;48.260;10.988;2023-04-20T01:17:31;4.00;99.90
262;DHT22;114;48.260;10.988;2023-04-20T01:19:58;4.00;99.90
262;DHT22;114;48.260;10.988;2023-04-20T01:22:25;4.00;99.90
262;DHT22;114;48.260;10.988;2023-04-20T01:24:51;4.00;99.90
262;DHT22;114;48.260;10.988;2023-04-20T01:27:17;4.00;99.90
262;DHT22;114;48.260;10.988;2023-04-20T01:29:44;4.10;99.90
262;DHT22;114;48.260;10.988;2023-04-20T01:32:10;4.10;99.90
262;DHT22;114;48.260;10.988;2023-04-20T01:34:37;4.10;99.90
262;DHT22;114;48.260;10.988;2023-04-20T01:37:04;4.10;99.90
262;DHT22;114;48.260;10.988;2023-04-20T01:39:39;4.10;99.90
262;DHT22;114;48.260;10.988;2023-04-20T01:42:05;4.10;99.90
262;DHT22;114;48.260;10.988;2023-04-20T01:44:31;4.10;99.90
262;DHT22;114;48.260;10.988;2023-04-20T01:46:57;4.10;99.90
262;DHT22;114;48.260;10.988;2023-04-20T01:49:23;4.10;99.90
262;DHT22;114;48.260;10.988;2023-04-20T01:51:48;4.10;99.90
262;DHT22;114;48.260;10.988;2023-04-20T01:54:14;4.10;99.90
262;DHT22;114;48.260;10.988;2023-04-20T01:56:40;4.10;99.90
262;DHT22;114;48.260;10.988;2023-04-20T01:59:06;4.10;99.90
262;DHT22;114;48.260;10.988;2023-04-20T02:01:31;4.20;99.90
262;DHT22;114;48.260;10.988;2023-04-20T02:03:57;4.10;99.90
262;DHT22;114;48.260;10.988;2023-04-20T02:06:23;4.10;99.90
262;DHT22;114;48.260;10.988;2023-04-20T02:08:49;4.20;99.90
262;DHT22;114;48.260;10.988;2023-04-20T02:11:14;4.20;99.90
262;DHT22;114;48.260;10.988;2023-04-20T02:13:40;4.20;99.90
262;DHT22;114;48.260;10.988;2023-04-20T02:16:06;4.20;99.90
262;DHT22;114;48.260;10.988;2023-04-20T02:18:32;4.30;99.90
262;DHT22;114;48.260;10.988;2023-04-20T02:20:59;4.20;99.90
262;DHT22;114;48.260;10.988;2023-04-20T02:23:24;4.20;99.90
262;DHT22;114;48.260;10.988;2023-04-20T02:25:50;4.20;99.90
262;DHT22;114;48.260;10.988;2023-04-20T02:28:16;4.20;99.90
262;DHT22;114;48.260;10.988;2023-04-20T02:30:42;4.10;99.90
262;DHT22;114;48.260;10.988;2023-04-20T02:33:08;4.10;99.90
262;DHT22;114;48.260;10.988;2023-04-20T02:35:34;4.20;99.90
262;DHT22;114;48.260;10.988;2023-04-20T02:38:00;4.20;99.90
262;DHT22;114;48.260;10.988;2023-04-20T02:40:25;4.20;99.90
262;DHT22;114;48.260;10.988;2023-04-20T02:42:51;4.20;99.90
262;DHT22;114;48.260;10.988;2023-04-20T02:45:17;4.20;99.90
262;DHT22;114;48.260;10.988;2023-04-20T02:47:42;4.10;99.90
262;DHT22;114;48.260;10.988;2023-04-20T02:50:09;4.20;99.90
262;DHT22;114;48.260;10.988;2023-04-20T02:52:35;4.20;99.90
262;DHT22;114;48.260;10.988;2023-04-20T02:55:01;4.20;99.90
262;DHT22;114;48.260;10.988;2023-04-20T02:57:27;4.20;99.90
262;DHT22;114;48.260;10.988;2023-04-20T02:59:52;4.20;99.90
262;DHT22;114;48.260;10.988;2023-04-20T03:02:18;4.20;99.90
262;DHT22;114;48.260;10.988;2023-04-20T03:04:44;4.10;99.90
262;DHT22;114;48.260;10.988;2023-04-20T03:07:09;4.10;99.90
262;DHT22;114;48.260;10.988;2023-04-20T03:09:36;4.20;99.90
262;DHT22;114;48.260;10.988;2023-04-20T03:12:03;4.20;99.90
262;DHT22;114;48.260;10.988;2023-04-20T03:14:28;4.20;99.90
262;DHT22;114;48.260;10.988;2023-04-20T03:16:55;4.20;99.90
262;DHT22;114;48.260;10.988;2023-04-20T03:19:21;4.30;99.90
262;DHT22;114;48.260;10.988;2023-04-20T03:21:47;4.30;99.90
262;DHT22;114;48.260;10.988;2023-04-20T03:24:13;4.30;99.90
262;DHT22;114;48.260;10.988;2023-04-20T03:26:39;4.30;99.90
262;DHT22;114;48.260;10.988;2023-04-20T03:29:04;4.20;99.90
262;DHT22;114;48.260;10.988;2023-04-20T03:31:30;4.20;99.90
262;DHT22;114;48.260;10.988;2023-04-20T03:33:56;4.20;99.90
262;DHT22;114;48.260;10.988;2023-04-20T03:36:23;4.20;99.90
262;DHT22;114;48.260;10.988;2023-04-20T03:38:49;4.20;99.90
262;DHT22;114;48.260;10.988;2023-04-20T03:41:14;4.20;99.90
262;DHT22;114;48.260;10.988;2023-04-20T03:43:40;4.20;99.90
262;DHT22;114;48.260;10.988;2023-04-20T03:46:06;4.20;99.90
262;DHT22;114;48.260;10.988;2023-04-20T03:48:33;4.20;99.90
262;DHT22;114;48.260;10.988;2023-04-20T03:50:58;4.30;99.90
262;DHT22;114;48.260;10.988;2023-04-20T03:53:24;4.20;99.90
262;DHT22;114;48.260;10.988;2023-04-20T03:55:50;4.20;99.90
262;DHT22;114;48.260;10.988;2023-04-20T03:58:16;4.10;99.90
262;DHT22;114;48.260;10.988;2023-04-20T04:00:42;4.10;99.90
262;DHT22;114;48.260;10.988;2023-04-20T04:03:08;4.10;99.90
262;DHT22;114;48.260;10.988;2023-04-20T04:05:34;4.10;99.90
262;DHT22;114;48.260;10.988;2023-04-20T04:08:00;4.20;99.90
262;DHT22;114;48.260;10.988;2023-04-20T04:10:26;4.10;99.90
262;DHT22;114;48.260;10.988;2023-04-20T04:12:52;4.20;99.90
262;DHT22;114;48.260;10.988;2023-04-20T04:15:17;4.10;99.90
262;DHT22;114;48.260;10.988;2023-04-20T04:17:44;4.10;99.90
262;DHT22;114;48.260;10.988;2023-04-20T04:20:10;4.10;99.90
262;DHT22;114;48.260;10.988;2023-04-20T04:22:36;4.10;99.90
262;DHT22;114;48.260;10.988;2023-04-20T04:25:03;4.10;99.90
262;DHT22;114;48.260;10.988;2023-04-20T04:27:28;4.10;99.90
262;DHT22;114;48.260;10.988;2023-04-20T04:29:59;4.10;99.90
262;DHT22;114;48.260;10.988;2023-04-20T04:32:25;4.10;99.90
262;DHT22;114;48.260;10.988;2023-04-20T04:34:51;4.10;99.90
262;DHT22;114;48.260;10.988;2023-04-20T04:37:18;4.10;99.90
262;DHT22;114;48.260;10.988;2023-04-20T04:39:44;4.20;99.90
262;DHT22;114;48.260;10.988;2023-04-20T04:42:10;4.20;99.90
262;DHT22;114;48.260;10.988;2023-04-20T04:44:36;4.20;99.90
262;DHT22;114;48.260;10.988;2023-04-20T04:47:02;4.20;99.90
262;DHT22;114;48.260;10.988;2023-04-20T04:49:30;4.20;99.90
262;DHT22;114;48.260;10.988;2023-04-20T04:51:56;4.20;99.90
262;DHT22;114;48.260;10.988;2023-04-20T04:54:22;4.30;99.90
262;DHT22;114;48.260;10.988;2023-04-20T04:56:48;4.30;99.90
262;DHT22;114;48.260;10.988;2023-04-20T04:59:13;4.30;99.90
262;DHT22;114;48.260;10.988;2023-04-20T05:01:39;4.30;99.90
262;DHT22;114;48.260;10.988;2023-04-20T05:04:05;4.40;99.90
262;DHT22;114;48.260;10.988;2023-04-20T05:06:30;4.50;99.90
262;DHT22;114;48.260;10.988;2023-04-20T05:08:57;4.40;99.90
262;DHT22;114;48.260;10.988;2023-04-20T05:11:22;4.40;99.90
262;DHT22;114;48.260;10.988;2023-04-20T05:13:48;4.40;99.90
262;DHT22;114;48.260;10.988;2023-04-20T05:16:14;4.50;99.90
262;DHT22;114;48.260;10.988;2023-04-20T05:18:40;4.50;99.90
262;DHT22;114;48.260;10.988;2023-04-20T05:21:06;4.50;99.50
262;DHT22;114;48.260;10.988;2023-04-20T05:23:32;4.50;99.00
262;DHT22;114;48.260;10.988;2023-04-20T05:25:57;4.50;98.60
262;DHT22;114;48.260;10.988;2023-04-20T05:28:23;4.60;98.20
262;DHT22;114;48.260;10.988;2023-04-20T05:30:49;4.60;97.60
262;DHT22;114;48.260;10.988;2023-04-20T05:33:15;4.60;97.50
262;DHT22;114;48.260;10.988;2023-04-20T05:35:41;4.60;96.80
262;DHT22;114;48.260;10.988;2023-04-20T05:38:06;4.70;96.20
262;DHT22;114;48.260;10.988;2023-04-20T05:40:32;4.70;96.20
262;DHT22;114;48.260;10.988;2023-04-20T05:43:01;4.70;95.80
262;DHT22;114;48.260;10.988;2023-04-20T05:45:27;4.80;96.00
262;DHT22;114;48.260;10.988;2023-04-20T05:47:54;4.80;93.90
262;DHT22;114;48.260;10.988;2023-04-20T05:50:21;4.80;91.70
262;DHT22;114;48.260;10.988;2023-04-20T05:52:47;4.80;91.10
262;DHT22;114;48.260;10.988;2023-04-20T05:55:13;4.90;90.60
262;DHT22;114;48.260;10.988;2023-04-20T05:57:38;4.90;88.50
262;DHT22;114;48.260;10.988;2023-04-20T06:00:09;4.90;85.70
262;DHT22;114;48.260;10.988;2023-04-20T06:02:36;4.90;85.70
262;DHT22;114;48.260;10.988;2023-04-20T06:05:01;5.00;84.00
262;DHT22;114;48.260;10.988;2023-04-20T06:07:27;5.00;84.20
262;DHT22;114;48.260;10.988;2023-04-20T06:09:53;5.00;84.50
262;DHT22;114;48.260;10.988;2023-04-20T06:12:19;5.10;82.50
262;DHT22;114;48.260;10.988;2023-04-20T06:14:44;5.00;78.00
262;DHT22;114;48.260;10.988;2023-04-20T06:17:10;4.90;79.70
262;DHT22;114;48.260;10.988;2023-04-20T06:19:36;4.90;82.30
262;DHT22;114;48.260;10.988;2023-04-20T06:22:08;4.90;86.40
262;DHT22;114;48.260;10.988;2023-04-20T06:24:34;5.00;87.80
262;DHT22;114;48.260;10.988;2023-04-20T06:27:01;5.00;87.40
262;DHT22;114;48.260;10.988;2023-04-20T06:29:28;5.10;87.20
262;DHT22;114;48.260;10.988;2023-04-20T06:31:53;5.00;80.60
262;DHT22;114;48.260;10.988;2023-04-20T06:34:19;5.00;83.30
262;DHT22;114;48.260;10.988;2023-04-20T06:36:45;5.00;82.90
262;DHT22;114;48.260;10.988;2023-04-20T06:39:11;4.90;84.10
262;DHT22;114;48.260;10.988;2023-04-20T06:41:37;4.90;84.70
262;DHT22;114;48.260;10.988;2023-04-20T06:44:03;5.00;85.40
262;DHT22;114;48.260;10.988;2023-04-20T06:46:29;4.90;81.90
262;DHT22;114;48.260;10.988;2023-04-20T06:48:55;5.00;83.40
262;DHT22;114;48.260;10.988;2023-04-20T06:51:20;4.90;82.10
262;DHT22;114;48.260;10.988;2023-04-20T06:53:46;5.00;83.90
262;DHT22;114;48.260;10.988;2023-04-20T06:56:12;4.90;81.30
262;DHT22;114;48.260;10.988;2023-04-20T06:58:37;5.00;81.80
262;DHT22;114;48.260;10.988;2023-04-20T07:01:03;4.90;84.00
262;DHT22;114;48.260;10.988;2023-04-20T07:03:29;4.90;85.50
262;DHT22;114;48.260;10.988;2023-04-20T07:05:55;4.80;88.50
262;DHT22;114;48.260;10.988;2023-04-20T07:08:21;4.90;88.40
262;DHT22;114;48.260;10.988;2023-04-20T07:10:47;5.00;89.60
262;DHT22;114;48.260;10.988;2023-04-20T07:13:12;5.20;89.80
262;DHT22;114;48.260;10.988;2023-04-20T07:15:38;5.30;85.70
262;DHT22;114;48.260;10.988;2023-04-20T07:18:04;5.40;86.40
262;DHT22;114;48.260;10.988;2023-04-20T07:20:31;5.40;83.50
262;DHT22;114;48.260;10.988;2023-04-20T07:22:56;5.30;81.70
262;DHT22;114;48.260;10.988;2023-04-20T07:25:22;5.40;81.50
262;DHT22;114;48.260;10.988;2023-04-20T07:27:48;5.20;82.30
262;DHT22;114;48.260;10.988;2023-04-20T07:30:14;5.20;84.20
262;DHT22;114;48.260;10.988;2023-04-20T07:32:40;5.20;83.20
262;DHT22;114;48.260;10.988;2023-04-20T07:35:06;5.10;85.50
262;DHT22;114;48.260;10.988;2023-04-20T07:37:33;5.20;88.60
262;DHT22;114;48.260;10.988;2023-04-20T07:39:59;5.00;85.60
262;DHT22;114;48.260;10.988;2023-04-20T07:42:25;5.20;87.10
262;DHT22;114;48.260;10.988;2023-04-20T07:44:51;5.20;85.50
262;DHT22;114;48.260;10.988;2023-04-20T07:47:17;5.20;82.00
262;DHT22;114;48.260;10.988;2023-04-20T07:49:42;5.20;80.60
262;DHT22;114;48.260;10.988;2023-04-20T07:52:08;5.20;74.60
262;DHT22;114;48.260;10.988;2023-04-20T07:54:34;5.00;77.00
262;DHT22;114;48.260;10.988;2023-04-20T07:57:00;4.90;76.90
262;DHT22;114;48.260;10.988;2023-04-20T07:59:28;4.90;82.40
262;DHT22;114;48.260;10.988;2023-04-20T08:02:00;4.90;82.80
262;DHT22;114;48.260;10.988;2023-04-20T08:04:26;4.80;83.10
262;DHT22;114;48.260;10.988;2023-04-20T08:06:52;4.80;85.40
262;DHT22;114;48.260;10.988;2023-04-20T08:09:18;4.90;87.00
262;DHT22;114;48.260;10.988;2023-04-20T08:11:44;4.90;85.40
262;DHT22;114;48.260;10.988;2023-04-20T08:14:11;4.80;85.60
262;DHT22;114;48.260;10.988;2023-04-20T08:16:37;4.80;86.50
262;DHT22;114;48.260;10.988;2023-04-20T08:19:02;4.70;87.80
262;DHT22;114;48.260;10.988;2023-04-20T08:21:35;4.70;89.20
262;DHT22;114;48.260;10.988;2023-04-20T08:24:01;4.80;88.10
262;DHT22;114;48.260;10.988;2023-04-20T08:26:28;4.80;86.50
262;DHT22;114;48.260;10.988;2023-04-20T08:28:53;4.70;88.10
262;DHT22;114;48.260;10.988;2023-04-20T08:31:19;4.70;87.90
262;DHT22;114;48.260;10.988;2023-04-20T08:33:46;4.70;88.50
262;DHT22;114;48.260;10.988;2023-04-20T08:36:11;4.80;89.50
262;DHT22;114;48.260;10.988;2023-04-20T08:38:37;4.90;88.20
262;DHT22;114;48.260;10.988;2023-04-20T08:41:03;4.90;85.10
262;DHT22;114;48.260;10.988;2023-04-20T08:43:29;4.90;81.60
262;DHT22;114;48.260;10.988;2023-04-20T08:45:59;5.00;82.20
262;DHT22;114;48.260;10.988;2023-04-20T08:48:35;5.10;81.60
262;DHT22;114;48.260;10.988;2023-04-20T08:51:03;5.10;74.50
262;DHT22;114;48.260;10.988;2023-04-20T08:53:32;5.10;75.70
262;DHT22;114;48.260;10.988;2023-04-20T08:55:58;5.20;76.00
262;DHT22;114;48.260;10.988;2023-04-20T08:58:26;5.20;72.60
262;DHT22;114;48.260;10.988;2023-04-20T09:00:53;5.10;70.60
262;DHT22;114;48.260;10.988;2023-04-20T09:03:40;5.10;71.40
262;DHT22;114;48.260;10.988;2023-04-20T09:06:16;5.10;75.80
262;DHT22;114;48.260;10.988;2023-04-20T09:08:44;5.20;73.60
262;DHT22;114;48.260;10.988;2023-04-20T09:11:27;5.00;72.80
262;DHT22;114;48.260;10.988;2023-04-20T09:14:03;5.10;76.70
262;DHT22;114;48.260;10.988;2023-04-20T09:16:34;5.30;77.40
262;DHT22;114;48.260;10.988;2023-04-20T09:19:00;5.60;75.70
262;DHT22;114;48.260;10.988;2023-04-20T09:21:26;5.50;69.20
262;DHT22;114;48.260;10.988;2023-04-20T09:24:04;5.60;67.90
262;DHT22;114;48.260;10.988;2023-04-20T09:26:35;5.50;66.80
262;DHT22;114;48.260;10.988;2023-04-20T09:29:01;5.50;64.70
262;DHT22;114;48.260;10.988;2023-04-20T09:31:28;5.50;69.60
262;DHT22;114;48.260;10.988;2023-04-20T09:34:01;5.50;65.80
262;DHT22;114;48.260;10.988;2023-04-20T09:36:45;5.30;68.90
262;DHT22;114;48.260;10.988;2023-04-20T09:39:29;5.30;71.00
262;DHT22;114;48.260;10.988;2023-04-20T09:42:01;5.40;71.60
262;DHT22;114;48.260;10.988;2023-04-20T09:44:28;5.50;73.70
262;DHT22;114;48.260;10.988;2023-04-20T09:46:54;5.60;72.90
262;DHT22;114;48.260;10.988;2023-04-20T09:49:21;5.60;75.40
262;DHT22;114;48.260;10.988;2023-04-20T09:51:47;5.70;75.70
262;DHT22;114;48.260;10.988;2023-04-20T09:54:14;5.70;75.50
262;DHT22;114;48.260;10.988;2023-04-20T09:56:40;5.60;74.60
262;DHT22;114;48.260;10.988;2023-04-20T09:59:06;5.60;75.20
262;DHT22;114;48.260;10.988;2023-04-20T10:01:33;5.30;67.90
262;DHT22;114;48.260;10.988;2023-04-20T10:04:02;5.20;72.80
262;DHT22;114;48.260;10.988;2023-04-20T10:06:30;5.30;75.50
262;DHT22;114;48.260;10.988;2023-04-20T10:08:56;5.10;76.00
262;DHT22;114;48.260;10.988;2023-04-20T10:11:37;5.10;79.00
262;DHT22;114;48.260;10.988;2023-04-20T10:14:17;5.20;82.90
262;DHT22;114;48.260;10.988;2023-04-20T10:16:44;5.20;79.30
262;DHT22;114;48.260;10.988;2023-04-20T10:19:11;5.20;82.50
262;DHT22;114;48.260;10.988;2023-04-20T10:21:48;5.10;82.40
262;DHT22;114;48.260;10.988;2023-04-20T10:24:15;5.10;83.10
262;DHT22;114;48.260;10.988;2023-04-20T10:26:52;5.10;86.00
262;DHT22;114;48.260;10.988;2023-04-20T10:29:25;5.10;87.40
262;DHT22;114;48.260;10.988;2023-04-20T10:31:52;5.10;90.00
262;DHT22;114;48.260;10.988;2023-04-20T10:34:31;5.20;88.80
262;DHT22;114;48.260;10.988;2023-04-20T10:37:11;5.20;83.70
262;DHT22;114;48.260;10.988;2023-04-20T10:39:46;5.30;83.20
262;DHT22;114;48.260;10.988;2023-04-20T10:42:14;5.30;81.00
262;DHT22;114;48.260;10.988;2023-04-20T10:44:51;5.30;81.90
262;DHT22;114;48.260;10.988;2023-04-20T10:47:27;5.40;83.70
262;DHT22;114;48.260;10.988;2023-04-20T10:49:53;5.30;83.10
262;DHT22;114;48.260;10.988;2023-04-20T10:52:40;5.30;83.50
262;DHT22;114;48.260;10.988;2023-04-20T10:55:18;5.40;83.90
262;DHT22;114;48.260;10.988;2023-04-20T10:57:44;5.40;84.00
262;DHT22;114;48.260;10.988;2023-04-20T11:00:18;5.50;83.50
262;DHT22;114;48.260;10.988;2023-04-20T11:02:49;5.50;84.90
262;DHT22;114;48.260;10.988;2023-04-20T11:05:16;5.60;84.70
262;DHT22;114;48.260;10.988;2023-04-20T11:07:53;5.60;82.70
262;DHT22;114;48.260;10.988;2023-04-20T11:10:23;5.50;81.00
262;DHT22;114;48.260;10.988;2023-04-20T11:12:49;5.50;80.30
262;DHT22;114;48.260;10.988;2023-04-20T11:15:16;5.60;83.00
262;DHT22;114;48.260;10.988;2023-04-20T11:17:43;5.70;82.40
262;DHT22;114;48.260;10.988;2023-04-20T11:20:11;5.70;82.80
262;DHT22;114;48.260;10.988;2023-04-20T11:22:39;5.80;80.00
262;DHT22;114;48.260;10.988;2023-04-20T11:25:06;5.80;78.60
262;DHT22;114;48.260;10.988;2023-04-20T11:27:34;5.90;73.30
262;DHT22;114;48.260;10.988;2023-04-20T11:30:00;6.00;73.50
262;DHT22;114;48.260;10.988;2023-04-20T11:32:31;6.20;73.50
262;DHT22;114;48.260;10.988;2023-04-20T11:35:01;6.10;70.00
262;DHT22;114;48.260;10.988;2023-04-20T11:37:31;6.20;67.00
262;DHT22;114;48.260;10.988;2023-04-20T11:40:02;6.30;65.70
262;DHT22;114;48.260;10.988;2023-04-20T11:42:34;6.40;64.60
262;DHT22;114;48.260;10.988;2023-04-20T11:45:00;6.30;61.50
262;DHT22;114;48.260;10.988;2023-04-20T11:47:26;6.50;59.30
262;DHT22;114;48.260;10.988;2023-04-20T11:49:52;6.40;57.10
262;DHT22;114;48.260;10.988;2023-04-20T11:52:17;6.40;60.40
262;DHT22;114;48.260;10.988;2023-04-20T11:54:43;6.40;61.70
262;DHT22;114;48.260;10.988;2023-04-20T11:57:10;6.50;62.10
262;DHT22;114;48.260;10.988;2023-04-20T11:59:36;6.60;59.80
262;DHT22;114;48.260;10.988;2023-04-20T12:02:01;6.70;59.90
262;DHT22;114;48.260;10.988;2023-04-20T12:04:29;6.80;57.80
262;DHT22;114;48.260;10.988;2023-04-20T12:06:56;6.70;53.00
262;DHT22;114;48.260;10.988;2023-04-20T12:09:26;6.60;56.30
262;DHT22;114;48.260;10.988;2023-04-20T12:11:52;6.60;56.00
262;DHT22;114;48.260;10.988;2023-04-20T12:14:18;6.60;58.40
262;DHT22;114;48.260;10.988;2023-04-20T12:16:44;6.60;58.30
262;DHT22;114;48.260;10.988;2023-04-20T12:19:10;6.60;55.50
262;DHT22;114;48.260;10.988;2023-04-20T12:21:35;6.60;55.50
262;DHT22;114;48.260;10.988;2023-04-20T12:24:01;6.70;56.00
262;DHT22;114;48.260;10.988;2023-04-20T12:26:28;6.80;58.20
262;DHT22;114;48.260;10.988;2023-04-20T12:28:54;6.80;54.70
262;DHT22;114;48.260;10.988;2023-04-20T12:31:19;6.80;55.60
262;DHT22;114;48.260;10.988;2023-04-20T12:33:45;6.70;54.80
262;DHT22;114;48.260;10.988;2023-04-20T12:36:11;6.60;54.70
262;DHT22;114;48.260;10.988;2023-04-20T12:38:37;6.60;54.00
262;DHT22;114;48.260;10.988;2023-04-20T12:41:03;6.60;53.70
262;DHT22;114;48.260;10.988;2023-04-20T12:43:29;6.70;56.40
262;DHT22;114;48.260;10.988;2023-04-20T12:45:55;6.60;54.00
262;DHT22;114;48.260;10.988;2023-04-20T12:48:21;6.60;55.20
262;DHT22;114;48.260;10.988;2023-04-20T12:50:47;6.60;57.20
262;DHT22;114;48.260;10.988;2023-04-20T12:53:12;6.60;58.40
262;DHT22;114;48.260;10.988;2023-04-20T12:55:38;6.70;60.00
262;DHT22;114;48.260;10.988;2023-04-20T12:58:04;6.70;58.40
262;DHT22;114;48.260;10.988;2023-04-20T13:00:30;6.90;56.20
262;DHT22;114;48.260;10.988;2023-04-20T13:02:56;7.00;49.40
262;DHT22;114;48.260;10.988;2023-04-20T13:05:21;6.90;48.30
262;DHT22;114;48.260;10.988;2023-04-20T13:07:47;7.00;49.40
262;DHT22;114;48.260;10.988;2023-04-20T13:10:13;7.00;48.10
262;DHT22;114;48.260;10.988;2023-04-20T13:12:38;7.00;49.40
262;DHT22;114;48.260;10.988;2023-04-20T13:15:06;7.20;49.60
262;DHT22;114;48.260;10.988;2023-04-20T13:17:33;7.40;49.20
262;DHT22;114;48.260;10.988;2023-04-20T13:19:59;7.50;45.50
262;DHT22;114;48.260;10.988;2023-04-20T13:22:25;7.40;42.30
262;DHT22;114;48.260;10.988;2023-04-20T13:24:50;7.60;43.60
262;DHT22;114;48.260;10.988;2023-04-20T13:27:16;7.60;41.10
262;DHT22;114;48.260;10.988;2023-04-20T13:29:43;7.60;41.40
262;DHT22;114;48.260;10.988;2023-04-20T13:32:09;7.60;42.90
262;DHT22;114;48.260;10.988;2023-04-20T13:34:35;7.50;38.90
262;DHT22;114;48.260;10.988;2023-04-20T13:37:01;7.50;38.10
262;DHT22;114;48.260;10.988;2023-04-20T13:39:30;7.30;37.50
262;DHT22;114;48.260;10.988;2023-04-20T13:41:56;7.30;40.20
262;DHT22;114;48.260;10.988;2023-04-20T13:44:22;7.40;43.40
262;DHT22;114;48.260;10.988;2023-04-20T13:46:48;7.50;44.10
262;DHT22;114;48.260;10.988;2023-04-20T13:49:14;7.50;41.90
262;DHT22;114;48.260;10.988;2023-04-20T13:51:41;7.40;41.20
262;DHT22;114;48.260;10.988;2023-04-20T13:54:07;7.50;44.40
262;DHT22;114;48.260;10.988;2023-04-20T13:56:33;7.50;40.30
262;DHT22;114;48.260;10.988;2023-04-20T13:58:59;7.60;39.40
262;DHT22;114;48.260;10.988;2023-04-20T14:01:25;7.70;42.30
262;DHT22;114;48.260;10.988;2023-04-20T14:03:54;7.70;40.20
262;DHT22;114;48.260;10.988;2023-04-20T14:06:20;7.80;40.10
262;DHT22;114;48.260;10.988;2023-04-20T14:08:46;7.80;40.50
262;DHT22;114;48.260;10.988;2023-04-20T14:11:11;7.80;42.00
262;DHT22;114;48.260;10.988;2023-04-20T14:13:37;7.80;39.30
262;DHT22;114;48.260;10.988;2023-04-20T14:16:07;7.80;38.50
262;DHT22;114;48.260;10.988;2023-04-20T14:18:34;7.90;38.70
262;DHT22;114;48.260;10.988;2023-04-20T14:21:00;7.90;38.30
262;DHT22;114;48.260;10.988;2023-04-20T14:23:26;7.90;39.00
262;DHT22;114;48.260;10.988;2023-04-20T14:25:51;7.80;34.80
262;DHT22;114;48.260;10.988;2023-04-20T14:28:17;7.60;38.20
262;DHT22;114;48.260;10.988;2023-04-20T14:30:44;7.50;41.30
262;DHT22;114;48.260;10.988;2023-04-20T14:33:10;7.40;45.70
262;DHT22;114;48.260;10.988;2023-04-20T14:35:36;7.30;48.70
262;DHT22;114;48.260;10.988;2023-04-20T14:38:02;7.20;52.60
262;DHT22;114;48.260;10.988;2023-04-20T14:40:28;7.20;54.30
262;DHT22;114;48.260;10.988;2023-04-20T14:42:54;7.10;54.40
262;DHT22;114;48.260;10.988;2023-04-20T14:45:20;7.00;53.50
262;DHT22;114;48.260;10.988;2023-04-20T14:47:45;7.10;54.60
262;DHT22;114;48.260;10.988;2023-04-20T14:50:12;7.20;55.80
262;DHT22;114;48.260;10.988;2023-04-20T14:52:38;7.20;50.20
262;DHT22;114;48.260;10.988;2023-04-20T14:55:04;7.30;51.00
262;DHT22;114;48.260;10.988;2023-04-20T14:57:29;7.40;51.30
262;DHT22;114;48.260;10.988;2023-04-20T14:59:55;7.40;46.90
262;DHT22;114;48.260;10.988;2023-04-20T15:02:21;7.40;48.00
262;DHT22;114;48.260;10.988;2023-04-20T15:04:47;7.40;47.70
262;DHT22;114;48.260;10.988;2023-04-20T15:07:13;7.50;44.40
262;DHT22;114;48.260;10.988;2023-04-20T15:09:39;7.40;43.00
262;DHT22;114;48.260;10.988;2023-04-20T15:12:04;7.30;44.70
262;DHT22;114;48.260;10.988;2023-04-20T15:14:30;7.40;44.80
262;DHT22;114;48.260;10.988;2023-04-20T15:16:56;7.30;44.30
262;DHT22;114;48.260;10.988;2023-04-20T15:19:21;7.40;46.30
262;DHT22;114;48.260;10.988;2023-04-20T15:21:47;7.40;45.00
262;DHT22;114;48.260;10.988;2023-04-20T15:24:13;7.40;44.00
262;DHT22;114;48.260;10.988;2023-04-20T15:26:39;7.40;44.90
262;DHT22;114;48.260;10.988;2023-04-20T15:29:05;7.40;46.80
262;DHT22;114;48.260;10.988;2023-04-20T15:31:31;7.40;45.00
262;DHT22;114;48.260;10.988;2023-04-20T15:33:58;7.30;47.40
262;DHT22;114;48.260;10.988;2023-04-20T15:36:24;7.40;48.90
262;DHT22;114;48.260;10.988;2023-04-20T15:38:50;7.40;49.70
262;DHT22;114;48.260;10.988;2023-04-20T15:41:18;7.40;48.80
262;DHT22;114;48.260;10.988;2023-04-20T15:43:44;7.40;49.00
262;DHT22;114;48.260;10.988;2023-04-20T15:46:10;7.40;49.70
262;DHT22;114;48.260;10.988;2023-04-20T15:48:36;7.40;50.50
262;DHT22;114;48.260;10.988;2023-04-20T15:51:02;7.50;50.90
262;DHT22;114;48.260;10.988;2023-04-20T15:53:28;7.70;50.00
262;DHT22;114;48.260;10.988;2023-04-20T15:55:54;7.40;48.10
262;DHT22;114;48.260;10.988;2023-04-20T15:58:20;7.50;48.60
262;DHT22;114;48.260;10.988;2023-04-20T16:00:46;7.50;49.00
262;DHT22;114;48.260;10.988;2023-04-20T16:03:12;7.50;47.90
262;DHT22;114;48.260;10.988;2023-04-20T16:05:38;7.50;48.80
262;DHT22;114;48.260;10.988;2023-04-20T16:08:04;7.60;47.90
262;DHT22;114;48.260;10.988;2023-04-20T16:10:30;7.80;47.10
262;DHT22;114;48.260;10.988;2023-04-20T16:12:56;7.90;45.90
262;DHT22;114;48.260;10.988;2023-04-20T16:15:22;8.10;44.60
262;DHT22;114;48.260;10.988;2023-04-20T16:17:49;8.20;40.00
262;DHT22;114;48.260;10.988;2023-04-20T16:20:14;8.30;36.00
262;DHT22;114;48.260;10.988;2023-04-20T16:22:40;8.30;31.80
262;DHT22;114;48.260;10.988;2023-04-20T16:25:06;8.30;33.70
262;DHT22;114;48.260;10.988;2023-04-20T16:27:32;8.40;32.80
262;DHT22;114;48.260;10.988;2023-04-20T16:29:58;8.20;33.90
262;DHT22;114;48.260;10.988;2023-04-20T16:32:24;8.20;36.10